Time;durP1;ratioP1;P1;durP2;ratioP2;P2;SDS_P1;SDS_P2;PMS_P1;PMS_P2;Temp;Humidity;BMP_temperature;BMP_pressure;BME280_temperature;BME280_humidity;BME280_pressure;Samples;Min_cycle;Max_cycle;Signal;HPM_P1;HPM_P2
2022/04/12 00:00:56;;;;;;;17.02;7.13;;;6.00;99.90;;;;;;5017392;28;20763;-86
2022/04/12 00:03:22;;;;;;;17.42;8.35;;;6.00;99.90;;;;;;5017338;28;20481;-86
2022/04/12 00:05:47;;;;;;;16.77;7.75;;;5.90;99.90;;;;;;5017523;28;20040;-86
2022/04/12 00:08:13;;;;;;;15.85;9.63;;;5.90;99.90;;;;;;5034597;28;20497;-85
2022/04/12 00:10:39;;;;;;;15.00;7.43;;;5.90;99.90;;;;;;5049719;28;20296;-86
2022/04/12 00:13:05;;;;;;;18.25;8.30;;;6.00;99.90;;;;;;5049962;28;20033;-85
2022/04/12 00:15:31;;;;;;;14.48;7.72;;;6.10;99.90;;;;;;5017007;28;20021;-86
2022/04/12 00:20:43;;;;;;;13.55;7.65;;;6.00;99.90;;;;;;5033118;28;20408;-86
2022/04/12 00:23:08;;;;;;;15.20;8.13;;;6.00;99.90;;;;;;5033259;28;20489;-86
2022/04/12 00:25:34;;;;;;;16.23;8.80;;;5.90;99.90;;;;;;5016858;28;20038;-86
2022/04/12 00:28:00;;;;;;;15.07;7.72;;;5.90;99.90;;;;;;5032970;28;20033;-86
2022/04/12 00:30:28;;;;;;;14.50;7.85;;;5.90;99.90;;;;;;5016416;28;20388;-85
2022/04/12 00:32:54;;;;;;;15.80;8.23;;;6.00;99.90;;;;;;5032363;28;20488;-86
2022/04/12 00:35:22;;;;;;;15.50;8.07;;;5.90;99.90;;;;;;5016144;28;20025;-86
2022/04/12 00:37:50;;;;;;;15.25;7.90;;;5.90;99.90;;;;;;5016196;28;20037;-87
2022/04/12 00:40:18;;;;;;;14.38;7.85;;;5.90;99.90;;;;;;5049114;28;20032;-86
2022/04/12 00:42:47;;;;;;;18.17;8.32;;;5.90;99.90;;;;;;5015733;28;20128;-87
2022/04/12 00:45:13;;;;;;;18.23;8.05;;;5.90;99.90;;;;;;5016070;28;20037;-86
2022/04/12 00:47:39;;;;;;;15.10;7.72;;;5.90;99.90;;;;;;5015995;28;20727;-86
2022/04/12 00:50:07;;;;;;;14.48;7.93;;;6.00;99.90;;;;;;5032540;28;20044;-86
2022/04/12 00:52:45;;;;;;;15.30;8.13;;;6.00;99.90;;;;;;5032470;28;20037;-85
2022/04/12 00:55:11;;;;;;;18.75;8.63;;;6.10;99.90;;;;;;4999808;28;20033;-86
2022/04/12 00:57:42;;;;;;;14.30;7.75;;;6.10;99.90;;;;;;5016023;28;20852;-86
2022/04/12 01:00:10;;;;;;;13.70;7.95;;;6.10;99.90;;;;;;5048974;28;20508;-86
2022/04/12 01:02:48;;;;;;;13.90;7.60;;;6.00;99.90;;;;;;5008135;28;20124;-86
2022/04/12 01:05:14;;;;;;;19.15;7.93;;;6.00;99.90;;;;;;5015981;28;20047;-87
2022/04/12 01:07:42;;;;;;;29.10;8.23;;;6.00;99.90;;;;;;5015263;28;20116;-87
2022/04/12 01:10:08;;;;;;;17.02;8.70;;;6.00;99.90;;;;;;5015477;28;20030;-86
2022/04/12 01:12:41;;;;;;;14.90;7.80;;;6.00;99.90;;;;;;5015953;28;20552;-86
2022/04/12 01:15:18;;;;;;;18.58;8.70;;;6.00;99.90;;;;;;5032651;28;20115;-86
2022/04/12 01:17:45;;;;;;;16.50;8.25;;;6.00;99.90;;;;;;5015830;28;20129;-86
2022/04/12 01:20:30;;;;;;;15.57;8.52;;;6.00;99.90;;;;;;5016148;28;20022;-86
2022/04/12 01:23:07;;;;;;;17.42;8.00;;;5.90;99.90;;;;;;5015787;28;20472;-86
2022/04/12 01:25:32;;;;;;;16.30;8.68;;;5.90;99.90;;;;;;5015949;28;20487;-86
2022/04/12 01:27:58;;;;;;;15.15;8.07;;;5.90;99.90;;;;;;5016115;28;20044;-86
2022/04/12 01:30:24;;;;;;;27.20;8.30;;;5.80;99.90;;;;;;5015756;28;20025;-86
2022/04/12 01:32:50;;;;;;;15.85;8.15;;;5.80;99.90;;;;;;5015733;28;20120;-86
2022/04/12 01:35:16;;;;;;;14.15;8.45;;;5.80;99.90;;;;;;5015512;28;20069;-86
2022/04/12 01:37:41;;;;;;;17.63;8.38;;;5.80;99.90;;;;;;5015755;28;20032;-86
2022/04/12 01:40:32;;;;;;;17.98;8.63;;;5.70;99.90;;;;;;5015182;28;20057;-86
2022/04/12 01:42:58;;;;;;;13.88;8.38;;;5.70;99.90;;;;;;5015066;28;20041;-86
2022/04/12 01:45:27;;;;;;;14.55;8.07;;;5.60;99.90;;;;;;5014778;28;20485;-85
2022/04/12 01:47:53;;;;;;;16.77;9.40;;;5.50;99.90;;;;;;5033386;28;20567;-86
2022/04/12 01:50:19;;;;;;;13.93;8.90;;;5.40;99.90;;;;;;5015531;28;20025;-86
2022/04/12 01:52:44;;;;;;;20.70;9.80;;;5.40;99.90;;;;;;5015664;28;20033;-87
2022/04/12 01:55:10;;;;;;;15.63;9.18;;;5.30;99.90;;;;;;5015428;28;20112;-86
2022/04/12 01:57:36;;;;;;;18.00;9.65;;;5.30;99.90;;;;;;5015566;28;20026;-86
2022/04/12 02:00:04;;;;;;;15.65;9.55;;;5.30;99.90;;;;;;5015023;28;20033;-86
2022/04/12 02:02:37;;;;;;;15.82;9.18;;;5.20;99.90;;;;;;5016754;28;20030;-85
2022/04/12 02:05:04;;;;;;;19.42;9.85;;;5.30;99.90;;;;;;5015518;28;20043;-86
2022/04/12 02:07:29;;;;;;;17.65;9.27;;;5.30;99.90;;;;;;5015432;28;20072;-86
2022/04/12 02:09:55;;;;;;;22.02;9.13;;;5.30;99.90;;;;;;5015581;28;20033;-86
2022/04/12 02:12:20;;;;;;;18.33;9.25;;;5.30;99.90;;;;;;5048340;28;20041;-86
2022/04/12 02:14:46;;;;;;;17.60;9.38;;;5.30;99.90;;;;;;5015459;28;20029;-86
2022/04/12 02:17:12;;;;;;;16.88;9.00;;;5.40;99.90;;;;;;5015518;28;20030;-86
2022/04/12 02:19:37;;;;;;;14.73;8.38;;;5.40;99.90;;;;;;5014661;28;20033;-86
2022/04/12 02:22:05;;;;;;;15.77;8.75;;;5.40;99.90;;;;;;5018322;28;20029;-86
2022/04/12 02:24:31;;;;;;;19.10;8.85;;;5.50;99.90;;;;;;5018504;28;20033;-86
2022/04/12 02:26:56;;;;;;;17.27;8.38;;;5.40;99.90;;;;;;5018728;28;20503;-86
2022/04/12 02:29:22;;;;;;;17.27;9.05;;;5.50;99.90;;;;;;5019203;28;20045;-86
2022/04/12 02:31:48;;;;;;;16.27;8.73;;;5.50;99.90;;;;;;5018934;28;20425;-86
2022/04/12 02:34:13;;;;;;;13.15;8.70;;;5.60;99.90;;;;;;5018777;28;20032;-85
2022/04/12 02:36:39;;;;;;;14.82;8.77;;;5.60;99.90;;;;;;5018564;28;20489;-85
2022/04/12 02:39:05;;;;;;;17.85;8.70;;;5.70;99.90;;;;;;5018966;28;20025;-86
2022/04/12 02:41:31;;;;;;;13.45;7.72;;;5.70;99.90;;;;;;5018433;28;20037;-86
2022/04/12 02:43:57;;;;;;;15.73;7.97;;;5.70;99.90;;;;;;5036172;28;20080;-86
2022/04/12 02:46:22;;;;;;;17.92;8.75;;;5.70;99.90;;;;;;5018433;28;20052;-86
2022/04/12 02:48:48;;;;;;;15.70;9.20;;;5.60;99.90;;;;;;5018167;28;20416;-86
2022/04/12 02:51:14;;;;;;;13.75;7.82;;;5.60;99.90;;;;;;5017880;28;20029;-86
2022/04/12 02:53:39;;;;;;;16.08;7.75;;;5.50;99.90;;;;;;5017979;28;20164;-86
2022/04/12 02:56:05;;;;;;;15.18;8.90;;;5.60;99.90;;;;;;5018176;28;20042;-86
2022/04/12 02:58:31;;;;;;;17.42;8.63;;;5.50;99.90;;;;;;5018323;28;20080;-86
2022/04/12 03:00:56;;;;;;;14.65;8.55;;;5.50;99.90;;;;;;5018341;28;20025;-86
2022/04/12 03:03:22;;;;;;;19.75;8.23;;;5.50;99.90;;;;;;5018138;28;20128;-86
2022/04/12 03:05:48;;;;;;;16.95;8.63;;;5.50;99.90;;;;;;5017881;28;20655;-86
2022/04/12 03:08:13;;;;;;;12.88;7.70;;;5.50;99.90;;;;;;5018066;28;20029;-86
2022/04/12 03:10:39;;;;;;;14.50;7.43;;;5.50;99.90;;;;;;5017973;28;20029;-86
2022/04/12 03:13:05;;;;;;;17.27;10.50;;;5.50;99.90;;;;;;5017961;28;20055;-86
2022/04/12 03:15:30;;;;;;;16.70;9.20;;;5.40;99.90;;;;;;5034205;28;20388;-86
2022/04/12 03:17:56;;;;;;;18.13;9.52;;;5.40;99.90;;;;;;5018006;28;20036;-86
2022/04/12 03:20:22;;;;;;;14.65;8.35;;;5.50;99.90;;;;;;5035490;28;20021;-86
2022/04/12 03:22:48;;;;;;;15.38;7.95;;;5.50;99.90;;;;;;5017735;28;20735;-86
2022/04/12 03:25:13;;;;;;;14.90;8.55;;;5.50;99.90;;;;;;5017536;28;20033;-86
2022/04/12 03:27:48;;;;;;;15.70;8.75;;;5.50;99.90;;;;;;5017651;28;20029;-85
2022/04/12 03:30:14;;;;;;;13.52;8.00;;;5.50;99.90;;;;;;5017139;28;20128;-86
2022/04/12 03:32:39;;;;;;;15.65;8.60;;;5.40;99.90;;;;;;5017348;28;20441;-86
2022/04/12 03:35:05;;;;;;;17.05;8.55;;;5.40;99.90;;;;;;5017430;28;20083;-86
2022/04/12 03:37:32;;;;;;;13.23;7.75;;;5.50;99.90;;;;;;5017505;28;20030;-85
2022/04/12 03:39:58;;;;;;;15.45;8.07;;;5.50;99.90;;;;;;5017172;28;20489;-86
2022/04/12 03:42:24;;;;;;;14.32;8.38;;;5.50;99.90;;;;;;5017345;28;20077;-86
2022/04/12 03:44:49;;;;;;;16.50;8.43;;;5.50;99.90;;;;;;5017496;28;20033;-85
2022/04/12 03:47:15;;;;;;;16.83;8.60;;;5.40;99.90;;;;;;5017656;28;20029;-86
2022/04/12 03:49:41;;;;;;;14.85;7.82;;;5.40;99.90;;;;;;5017643;28;20392;-86
2022/04/12 03:52:07;;;;;;;15.07;7.95;;;5.40;99.90;;;;;;5017244;28;20036;-86
2022/04/12 03:54:32;;;;;;;17.27;7.85;;;5.40;99.90;;;;;;5017149;28;20036;-86
2022/04/12 03:56:58;;;;;;;14.70;8.73;;;5.40;99.90;;;;;;5017326;28;20026;-86
2022/04/12 03:59:24;;;;;;;22.20;8.25;;;5.40;99.90;;;;;;5017502;28;20047;-86
2022/04/12 04:01:49;;;;;;;13.45;7.53;;;5.40;99.90;;;;;;5017222;28;20041;-86
2022/04/12 04:04:16;;;;;;;13.82;8.00;;;5.40;99.90;;;;;;5016913;28;20026;-86
2022/04/12 04:06:42;;;;;;;16.55;9.27;;;5.40;99.90;;;;;;5016553;28;20033;-86
2022/04/12 04:09:07;;;;;;;16.30;8.30;;;5.40;99.90;;;;;;5016531;28;20037;-85
2022/04/12 04:11:33;;;;;;;15.40;7.80;;;5.30;99.90;;;;;;5016860;28;20032;-86
2022/04/12 04:14:03;;;;;;;15.98;8.30;;;5.30;99.90;;;;;;5017084;28;20034;-86
2022/04/12 04:16:29;;;;;;;15.65;8.75;;;5.30;99.90;;;;;;5016991;28;20437;-86
2022/04/12 04:18:55;;;;;;;11.68;7.85;;;5.30;99.90;;;;;;5016581;28;20699;-85
2022/04/12 04:21:21;;;;;;;18.25;8.75;;;5.30;99.90;;;;;;5016742;28;20076;-86
2022/04/12 04:23:50;;;;;;;17.00;7.75;;;5.30;99.90;;;;;;5016633;28;20480;-86
2022/04/12 04:26:16;;;;;;;12.20;7.20;;;5.30;99.90;;;;;;5016610;28;20370;-86
2022/04/12 04:28:44;;;;;;;14.50;7.80;;;5.30;99.90;;;;;;5016854;28;20037;-86
2022/04/12 04:31:09;;;;;;;16.42;9.35;;;5.30;99.90;;;;;;5016528;28;20075;-86
2022/04/12 04:33:35;;;;;;;15.38;8.65;;;5.30;99.90;;;;;;5016389;28;20037;-86
2022/04/12 04:36:01;;;;;;;17.27;8.90;;;5.30;99.90;;;;;;5016400;28;20115;-86
2022/04/12 04:38:26;;;;;;;14.52;8.27;;;5.20;99.90;;;;;;5016282;28;20025;-86
2022/04/12 04:40:52;;;;;;;17.60;8.40;;;5.20;99.90;;;;;;5016307;28;20388;-85
2022/04/12 04:43:18;;;;;;;14.23;8.48;;;5.20;99.90;;;;;;5016759;28;20060;-89
2022/04/12 04:45:44;;;;;;;18.90;8.63;;;5.10;99.90;;;;;;5050360;28;20037;-90
2022/04/12 04:48:10;;;;;;;16.13;8.32;;;5.20;99.90;;;;;;5017330;28;20068;-90
2022/04/12 04:50:36;;;;;;;13.15;7.65;;;5.20;99.90;;;;;;5033588;28;20484;-89
2022/04/12 04:53:05;;;;;;;13.27;7.80;;;5.20;99.90;;;;;;5017026;28;20029;-90
2022/04/12 04:55:31;;;;;;;14.82;7.80;;;5.30;99.90;;;;;;5033537;28;20034;-89
2022/04/12 04:57:59;;;;;;;12.75;7.60;;;5.40;99.90;;;;;;5017775;28;20400;-89
2022/04/12 05:00:29;;;;;;;13.00;8.20;;;5.40;99.90;;;;;;5016832;28;20060;-90
2022/04/12 05:02:56;;;;;;;16.33;8.17;;;5.40;99.90;;;;;;5033530;28;20388;-89
2022/04/12 05:05:22;;;;;;;14.32;8.48;;;5.40;99.90;;;;;;5016574;28;20668;-89
2022/04/12 05:07:49;;;;;;;14.05;7.88;;;5.40;99.90;;;;;;5016875;28;20040;-89
2022/04/12 05:10:21;;;;;;;13.63;7.47;;;5.40;99.90;;;;;;5016451;28;20123;-89
2022/04/12 05:12:46;;;;;;;;;;;5.40;99.90;;;;;;5016988;28;20025;-89
2022/04/12 05:15:13;;;;;;;12.25;7.32;;;5.30;99.90;;;;;;5033074;28;19912;-89
2022/04/12 05:17:39;;;;;;;13.32;8.10;;;5.30;99.90;;;;;;5016292;28;20695;-89
2022/04/12 05:20:11;;;;;;;12.70;7.28;;;5.40;99.90;;;;;;5016261;28;20552;-90
2022/04/12 05:22:37;;;;;;;15.70;8.30;;;5.50;99.90;;;;;;5016683;28;20088;-90
2022/04/12 05:25:03;;;;;;;13.13;7.82;;;5.50;99.90;;;;;;5016325;28;20037;-90
2022/04/12 05:27:33;;;;;;;12.95;7.45;;;5.60;99.90;;;;;;5016282;28;20041;-90
2022/04/12 05:30:00;;;;;;;15.65;7.60;;;5.60;99.90;;;;;;5016714;28;20033;-90
2022/04/12 05:32:26;;;;;;;15.95;7.57;;;5.70;99.90;;;;;;5016485;28;20037;-90
2022/04/12 05:34:52;;;;;;;15.15;8.68;;;5.90;99.90;;;;;;5016536;28;20071;-90
2022/04/12 05:37:18;;;;;;;16.75;7.65;;;6.00;99.90;;;;;;5016417;28;20036;-90
2022/04/12 05:39:44;;;;;;;15.18;7.15;;;6.10;99.90;;;;;;5016364;28;20028;-91
2022/04/12 05:42:10;;;;;;;14.85;7.72;;;6.20;99.90;;;;;;5016804;28;20034;-89
2022/04/12 05:44:36;;;;;;;12.55;7.28;;;6.20;99.90;;;;;;5049220;28;20455;-89
2022/04/12 05:47:03;;;;;;;15.02;7.38;;;6.30;99.90;;;;;;5016170;28;20041;-89
2022/04/12 05:49:30;;;;;;;16.42;7.93;;;6.30;99.90;;;;;;5049151;28;20033;-90
2022/04/12 05:51:57;;;;;;;19.08;7.45;;;6.20;99.90;;;;;;5016175;28;20401;-89
2022/04/12 05:54:23;;;;;;;14.20;6.88;;;6.30;99.90;;;;;;5016312;28;20032;-90
2022/04/12 05:56:49;;;;;;;14.10;7.03;;;6.30;99.90;;;;;;5018881;28;20029;-90
2022/04/12 05:59:15;;;;;;;17.27;7.05;;;6.40;99.90;;;;;;5020628;28;20404;-90
2022/04/12 06:01:41;;;;;;;16.67;8.05;;;6.50;99.90;;;;;;5020581;28;20037;-91
2022/04/12 06:04:07;;;;;;;13.65;7.45;;;6.60;99.90;;;;;;5020738;28;20045;-90
2022/04/12 06:06:33;;;;;;;16.42;7.70;;;6.70;99.90;;;;;;5020283;28;20225;-89
2022/04/12 06:09:00;;;;;;;12.38;7.40;;;6.90;99.90;;;;;;5020225;28;20120;-91
2022/04/12 06:11:26;;;;;;;10.30;6.32;;;7.00;99.90;;;;;;5019972;28;20531;-90
2022/04/12 06:13:52;;;;;;;10.68;6.90;;;7.10;99.90;;;;;;5019994;28;20029;-90
2022/04/12 06:16:17;;;;;;;13.88;7.18;;;7.20;99.90;;;;;;5020212;28;20381;-90
2022/04/12 06:18:43;;;;;;;9.88;6.22;;;7.40;99.90;;;;;;5039188;28;20037;-90
2022/04/12 06:21:09;;;;;;;12.30;5.93;;;7.50;99.90;;;;;;5054039;28;20041;-89
2022/04/12 06:23:35;;;;;;;10.98;6.32;;;7.70;99.90;;;;;;5020448;28;20033;-90
2022/04/12 06:26:01;;;;;;;10.85;6.13;;;7.90;99.90;;;;;;5020250;28;20396;-90
2022/04/12 06:28:26;;;;;;;11.52;6.15;;;8.00;99.90;;;;;;5020523;28;20040;-90
2022/04/12 06:30:54;;;;;;;12.48;6.10;;;8.20;99.90;;;;;;5020150;28;20492;-91
2022/04/12 06:33:20;;;;;;;10.00;6.03;;;8.40;99.90;;;;;;5037595;28;20485;-90
2022/04/12 06:35:45;;;;;;;10.07;5.13;;;8.60;99.90;;;;;;5020175;28;20060;-91
2022/04/12 06:38:11;;;;;;;9.40;5.53;;;8.80;99.90;;;;;;5020365;28;20120;-89
2022/04/12 06:40:38;;;;;;;15.07;5.85;;;8.90;99.90;;;;;;5019761;28;20030;-89
2022/04/12 06:43:04;;;;;;;11.85;5.57;;;9.20;99.90;;;;;;5019814;28;20037;-90
2022/04/12 06:45:30;;;;;;;9.43;5.05;;;9.30;99.90;;;;;;5019535;28;20088;-89
2022/04/12 06:47:58;;;;;;;11.68;5.78;;;9.40;99.90;;;;;;5020118;28;20033;-90
2022/04/12 06:50:24;;;;;;;13.15;5.43;;;9.50;99.90;;;;;;5020013;28;20044;-90
2022/04/12 06:52:51;;;;;;;11.52;5.10;;;9.70;99.90;;;;;;5019666;28;20034;-90
2022/04/12 06:55:16;;;;;;;9.05;4.82;;;9.80;99.90;;;;;;5019729;28;20428;-90
2022/04/12 06:57:43;;;;;;;10.10;5.05;;;10.00;99.90;;;;;;5019764;28;20120;-89
2022/04/12 07:00:55;;;;;;;6.95;4.63;;;10.10;99.90;;;;;;5036147;28;20028;-89
2022/04/12 07:03:21;;;;;;;12.90;4.78;;;10.30;99.90;;;;;;5052885;28;20025;-88
2022/04/12 07:05:49;;;;;;;7.47;4.35;;;10.50;99.90;;;;;;5019435;28;20029;-89
2022/04/12 07:08:15;;;;;;;8.20;4.78;;;10.50;99.90;;;;;;5018663;28;20033;-89
2022/04/12 07:10:42;;;;;;;7.47;4.63;;;10.60;99.90;;;;;;5019076;28;20436;-89
2022/04/12 07:13:08;;;;;;;10.23;5.30;;;10.60;99.90;;;;;;5019028;28;20503;-88
2022/04/12 07:15:34;;;;;;;11.15;4.78;;;10.50;99.90;;;;;;5019499;28;20025;-89
2022/04/12 07:18:00;;;;;;;8.32;4.78;;;10.50;99.90;;;;;;5055904;28;20065;-88
2022/04/12 07:20:26;;;;;;;9.82;5.35;;;10.60;99.90;;;;;;5021689;28;20384;-88
2022/04/12 07:22:51;;;;;;;9.32;4.93;;;10.60;99.90;;;;;;5052113;28;20481;-88
2022/04/12 07:25:18;;;;;;;14.60;4.85;;;10.70;99.90;;;;;;5021913;28;20032;-89
2022/04/12 07:27:43;;;;;;;11.07;6.10;;;10.90;99.90;;;;;;5019245;28;20396;-88
2022/04/12 07:30:10;;;;;;;7.93;4.63;;;11.00;99.90;;;;;;5019082;28;20033;-89
2022/04/12 07:32:36;;;;;;;6.85;4.20;;;11.10;99.90;;;;;;5018965;28;20043;-89
2022/04/12 07:35:02;;;;;;;8.48;4.70;;;11.30;99.90;;;;;;5018744;28;20112;-89
2022/04/12 07:37:28;;;;;;;8.00;4.63;;;11.30;99.90;;;;;;5018898;28;20076;-88
2022/04/12 07:39:55;;;;;;;8.75;4.50;;;11.40;99.90;;;;;;5018783;28;20029;-90
2022/04/12 07:42:23;;;;;;;10.23;6.07;;;11.40;99.90;;;;;;5035372;28;20120;-89
2022/04/12 07:44:48;;;;;;;11.75;5.72;;;11.40;99.90;;;;;;5018781;28;20033;-90
2022/04/12 07:47:14;;;;;;;8.80;4.88;;;11.60;99.90;;;;;;5018516;28;20033;-88
2022/04/12 07:49:41;;;;;;;10.68;5.10;;;11.70;99.90;;;;;;5018884;28;20029;-89
2022/04/12 07:52:07;;;;;;;10.55;5.35;;;11.80;99.90;;;;;;5018592;28;20365;-89
2022/04/12 07:54:33;;;;;;;8.10;4.35;;;12.00;99.90;;;;;;5018194;28;20060;-90
2022/04/12 07:56:58;;;;;;;12.90;4.63;;;12.10;99.90;;;;;;5018127;28;20021;-90
2022/04/12 07:59:24;;;;;;;8.75;4.90;;;12.30;99.90;;;;;;5018721;28;20018;-90
2022/04/12 08:01:50;;;;;;;7.60;4.15;;;12.50;99.90;;;;;;5019084;28;20040;-90
2022/04/12 08:04:16;;;;;;;7.72;3.67;;;12.60;99.90;;;;;;5019025;28;20031;-89
2022/04/12 08:06:42;;;;;;;5.57;4.05;;;12.80;99.90;;;;;;5019157;28;20030;-89
2022/04/12 08:09:09;;;;;;;9.70;4.25;;;13.00;99.90;;;;;;5018745;28;20472;-90
2022/04/12 08:11:35;;;;;;;8.68;4.45;;;13.10;99.90;;;;;;5018610;28;20445;-90
2022/04/12 08:14:02;;;;;;;6.90;4.18;;;13.30;99.90;;;;;;5018345;28;20104;-89
2022/04/12 08:16:28;;;;;;;10.77;4.50;;;13.20;99.90;;;;;;5018173;28;20045;-92
2022/04/12 08:19:25;;;;;;;6.05;3.67;;;13.10;99.90;;;;;;5017402;28;20029;-90
2022/04/12 08:21:50;;;;;;;7.95;3.70;;;13.00;99.90;;;;;;5017892;28;20124;-91
2022/04/12 08:24:16;;;;;;;10.25;3.40;;;13.00;99.90;;;;;;5018219;28;20053;-90
2022/04/12 08:26:42;;;;;;;5.13;3.35;;;13.10;99.90;;;;;;5017988;28;20084;-90
2022/04/12 08:29:07;;;;;;;5.43;3.45;;;13.30;99.90;;;;;;5017962;28;20508;-90
2022/04/12 08:31:33;;;;;;;6.25;3.22;;;13.40;99.90;;;;;;5051241;28;20111;-90
2022/04/12 08:33:59;;;;;;;6.00;3.85;;;13.40;99.90;;;;;;5018217;28;20033;-91
2022/04/12 08:36:25;;;;;;;6.80;3.75;;;13.50;99.90;;;;;;5018068;28;20040;-91
2022/04/12 08:38:51;;;;;;;11.50;4.07;;;13.50;99.90;;;;;;5017773;28;20404;-90
2022/04/12 08:41:21;;;;;;;9.15;3.40;;;13.50;99.90;;;;;;5017797;28;20044;-91
2022/04/12 08:43:52;;;;;;;6.40;3.42;;;13.80;99.90;;;;;;5018041;28;20033;-90
2022/04/12 08:46:19;;;;;;;6.30;3.63;;;14.00;99.90;;;;;;5034381;28;20033;-91
2022/04/12 08:48:45;;;;;;;8.50;3.70;;;14.10;99.90;;;;;;5017209;28;20033;-90
2022/04/12 08:51:11;;;;;;;6.30;3.40;;;14.30;99.90;;;;;;5017836;28;20044;-91
2022/04/12 08:53:37;;;;;;;6.05;3.30;;;14.40;99.90;;;;;;5035404;28;20381;-90
2022/04/12 08:56:03;;;;;;;4.55;3.17;;;14.70;99.90;;;;;;5017619;28;20033;-89
2022/04/12 08:58:28;;;;;;;6.72;3.08;;;15.10;99.90;;;;;;5018252;28;20029;-90
2022/04/12 09:00:55;;;;;;;8.90;3.50;;;15.70;99.90;;;;;;5017359;28;20072;-90
2022/04/12 09:03:20;;;;;;;9.68;4.53;;;16.30;99.90;;;;;;5017921;28;20045;-90
2022/04/12 09:05:46;;;;;;;6.05;3.03;;;17.10;99.90;;;;;;5017316;28;20476;-91
2022/04/12 09:08:28;;;;;;;6.78;4.03;;;17.80;99.90;;;;;;5017488;28;20033;-91
2022/04/12 09:11:05;;;;;;;5.72;2.88;;;18.10;97.20;;;;;;5017650;28;20033;-91
2022/04/12 09:13:32;;;;;;;6.63;3.00;;;18.70;95.10;;;;;;5033827;28;20037;-91
2022/04/12 09:15:58;;;;;;;4.93;3.10;;;19.30;93.60;;;;;;5034050;28;20025;-92
2022/04/12 09:18:39;;;;;;;4.97;2.85;;;20.10;91.30;;;;;;5018472;28;20026;-91
2022/04/12 09:21:33;;;;;;;7.90;2.63;;;19.60;90.60;;;;;;5017484;28;20076;-90
2022/04/12 09:24:01;;;;;;;9.15;4.30;;;19.50;85.50;;;;;;5017415;28;20025;-91
2022/04/12 09:26:30;;;;;;;7.63;3.20;;;19.80;86.40;;;;;;5017480;28;20033;-91
2022/04/12 09:29:02;;;;;;;6.65;2.83;;;19.80;85.90;;;;;;5017071;28;20541;-91
2022/04/12 09:31:28;;;;;;;4.90;2.80;;;19.50;85.20;;;;;;5016528;28;20040;-90
2022/04/12 09:33:55;;;;;;;12.98;4.03;;;18.90;81.60;;;;;;5016500;28;20029;-90
2022/04/12 09:36:21;;;;;;;5.03;2.80;;;18.20;84.60;;;;;;5017052;28;20393;-90
2022/04/12 09:38:54;;;;;;;5.22;2.75;;;17.90;80.60;;;;;;5017193;28;20034;-90
2022/04/12 09:41:23;;;;;;;4.57;2.75;;;17.40;82.80;;;;;;5017326;28;20103;-89
2022/04/12 09:44:07;;;;;;;3.33;2.70;;;17.20;85.70;;;;;;5017455;28;20481;-90
2022/04/12 09:46:36;;;;;;;6.18;3.03;;;17.20;89.40;;;;;;5017003;28;20029;-90
2022/04/12 09:49:03;;;;;;;6.90;2.70;;;17.30;87.30;;;;;;5016889;28;20128;-91
2022/04/12 09:51:30;;;;;;;6.78;2.50;;;17.40;86.10;;;;;;5016669;28;20518;-91
2022/04/12 09:53:56;;;;;;;7.05;2.80;;;17.40;85.50;;;;;;5017213;28;20057;-91
2022/04/12 09:56:24;;;;;;;6.65;3.05;;;17.50;87.40;;;;;;5017092;28;20029;-91
2022/04/12 09:58:56;;;;;;;3.85;2.50;;;17.50;88.30;;;;;;5017183;28;20029;-90
2022/04/12 10:01:23;;;;;;;6.18;2.60;;;17.80;85.20;;;;;;5017019;28;20045;-91
2022/04/12 10:04:09;;;;;;;5.63;2.92;;;18.20;87.40;;;;;;5033557;28;20026;-91
2022/04/12 10:06:39;;;;;;;7.65;2.72;;;18.00;84.60;;;;;;5016940;28;20040;-91
2022/04/12 10:09:07;;;;;;;5.03;2.90;;;17.80;83.90;;;;;;5017038;28;20037;-92
2022/04/12 10:11:35;;;;;;;3.08;2.33;;;17.80;82.00;;;;;;5016625;28;20444;-90
2022/04/12 10:14:26;;;;;;;7.03;3.20;;;18.20;86.30;;;;;;5033488;28;20025;-90
2022/04/12 10:16:52;;;;;;;3.88;2.65;;;18.50;84.80;;;;;;5017060;28;20030;-91
2022/04/12 10:19:18;;;;;;;3.53;2.75;;;18.90;85.30;;;;;;5016786;28;20033;-91
2022/04/12 10:21:44;;;;;;;4.45;2.90;;;19.10;85.50;;;;;;5016880;28;20022;-89
2022/04/12 10:24:12;;;;;;;5.45;3.00;;;19.50;85.10;;;;;;5016790;28;20029;-91
2022/04/12 10:26:39;;;;;;;3.92;2.55;;;19.70;80.70;;;;;;5049757;28;20028;-91
2022/04/12 10:29:06;;;;;;;5.63;2.92;;;19.80;81.00;;;;;;5015953;28;20108;-90
2022/04/12 10:31:33;;;;;;;5.25;2.80;;;20.20;84.00;;;;;;5016563;28;20021;-90
2022/04/12 10:34:01;;;;;;;3.70;2.80;;;20.10;81.20;;;;;;5016251;28;20053;-91
2022/04/12 10:40:04;;;;;;;5.03;2.88;;;20.90;80.50;;;;;;5049454;28;20034;-91
2022/04/12 10:42:32;;;;;;;7.28;3.10;;;20.80;77.50;;;;;;5017740;28;20043;-92
2022/04/12 10:45:00;;;;;;;4.70;2.90;;;20.10;78.50;;;;;;5020023;28;20060;-91
2022/04/12 10:47:35;;;;;;;9.40;3.92;;;20.20;78.50;;;;;;5020276;28;20048;-91
2022/04/12 10:50:13;;;;;;;6.18;3.17;;;20.30;77.90;;;;;;5019962;28;20370;-91
2022/04/12 10:52:42;;;;;;;5.03;2.72;;;20.60;80.80;;;;;;5053497;28;20108;-91
2022/04/12 10:55:16;;;;;;;4.63;2.88;;;20.80;80.60;;;;;;5036292;28;20123;-91
2022/04/12 10:57:52;;;;;;;6.18;2.50;;;20.60;77.50;;;;;;5020387;28;20041;-91
2022/04/12 11:00:23;;;;;;;3.00;2.70;;;20.30;75.90;;;;;;5019942;28;20033;-91
2022/04/12 11:03:03;;;;;;;11.30;3.47;;;20.20;79.20;;;;;;5019820;28;20040;-91
2022/04/12 11:05:42;;;;;;;6.05;3.45;;;20.20;80.70;;;;;;5037988;28;20029;-91
2022/04/12 11:08:33;;;;;;;5.28;3.00;;;20.20;82.10;;;;;;5036485;28;20079;-90
2022/04/12 11:10:59;;;;;;;5.30;3.13;;;20.40;77.70;;;;;;5036381;28;20065;-91
2022/04/12 11:13:28;;;;;;;3.55;2.90;;;20.40;81.60;;;;;;5036382;28;20073;-91
2022/04/12 11:15:56;;;;;;;5.88;3.03;;;20.50;82.30;;;;;;5019853;28;20814;-90
2022/04/12 11:18:22;;;;;;;6.00;3.38;;;20.40;81.10;;;;;;5019892;28;20037;-91
2022/04/12 11:21:02;;;;;;;10.05;3.03;;;20.40;74.40;;;;;;5019511;28;20040;-91
2022/04/12 11:23:47;;;;;;;3.27;2.40;;;20.40;77.30;;;;;;5019685;28;20034;-91
2022/04/12 11:26:35;;;;;;;9.98;2.60;;;20.60;77.80;;;;;;5036172;28;20029;-91
2022/04/12 11:29:01;;;;;;;5.65;2.97;;;20.80;75.00;;;;;;5019775;28;20112;-92
2022/04/12 11:31:27;;;;;;;4.65;2.45;;;20.90;75.20;;;;;;5018826;28;20034;-91
2022/04/12 11:33:53;;;;;;;9.20;3.67;;;20.80;73.70;;;;;;5019961;28;20424;-91
2022/04/12 11:36:19;;;;;;;4.63;2.92;;;20.80;78.50;;;;;;5019225;28;20375;-91
2022/04/12 11:38:47;;;;;;;6.00;2.58;;;20.80;78.50;;;;;;5035944;28;20045;-90
2022/04/12 11:41:12;;;;;;;7.90;3.10;;;20.90;77.20;;;;;;5018820;28;20045;-91
2022/04/12 11:43:38;;;;;;;6.70;3.22;;;20.70;76.40;;;;;;5019172;28;20493;-91
2022/04/12 11:46:04;;;;;;;3.72;2.58;;;20.70;77.40;;;;;;5019208;28;20029;-90
2022/04/12 11:48:32;;;;;;;8.90;3.15;;;20.80;79.30;;;;;;5018611;28;20120;-91
2022/04/12 11:51:03;;;;;;;12.23;3.28;;;20.70;76.80;;;;;;5018363;28;20040;-91
2022/04/12 11:53:29;;;;;;;5.32;3.17;;;20.70;79.00;;;;;;5019329;28;20095;-91
2022/04/12 11:56:00;;;;;;;4.88;3.15;;;20.70;80.20;;;;;;5019176;28;20057;-91
2022/04/12 11:58:29;;;;;;;6.40;3.37;;;20.70;81.30;;;;;;5018793;28;20065;-91
2022/04/12 12:00:55;;;;;;;4.60;3.00;;;21.10;78.10;;;;;;5018294;28;20124;-91
2022/04/12 12:03:20;;;;;;;8.52;3.67;;;21.00;77.60;;;;;;5036408;28;20083;-91
2022/04/12 12:05:47;;;;;;;6.97;3.55;;;21.40;79.90;;;;;;5018555;28;20128;-90
2022/04/12 12:08:18;;;;;;;9.57;2.95;;;21.30;77.10;;;;;;5021157;28;20029;-90
2022/04/12 12:10:43;;;;;;;5.65;2.67;;;21.40;78.40;;;;;;5036563;28;20102;-90
2022/04/12 12:13:09;;;;;;;4.07;2.75;;;21.30;76.50;;;;;;5019117;28;20037;-91
2022/04/12 12:15:35;;;;;;;5.95;3.33;;;20.70;77.60;;;;;;5017956;28;20186;-91
2022/04/12 12:18:06;;;;;;;5.00;3.13;;;20.60;77.30;;;;;;5018453;28;20436;-91
2022/04/12 12:20:41;;;;;;;4.60;3.38;;;21.00;77.70;;;;;;5017939;28;20087;-91
2022/04/12 12:23:09;;;;;;;5.00;3.47;;;20.90;76.80;;;;;;5017855;28;20096;-90
2022/04/12 12:25:36;;;;;;;4.43;3.13;;;21.00;78.50;;;;;;5018870;28;20126;-91
2022/04/12 12:28:18;;;;;;;8.07;3.40;;;20.90;77.90;;;;;;5017603;28;20376;-90
2022/04/12 12:30:46;;;;;;;3.45;3.03;;;20.80;77.70;;;;;;5051299;28;20040;-91
2022/04/12 12:33:12;;;;;;;5.88;3.63;;;21.00;79.50;;;;;;5018144;28;20034;-90
2022/04/12 12:35:41;;;;;;;5.45;2.53;;;21.50;78.40;;;;;;5018252;28;20489;-91
2022/04/12 12:38:12;;;;;;;7.07;3.10;;;21.90;78.60;;;;;;5017763;28;20025;-90
2022/04/12 12:40:39;;;;;;;12.98;3.17;;;21.50;74.50;;;;;;5017801;28;20080;-90
2022/04/12 12:43:07;;;;;;;3.90;2.70;;;21.30;74.90;;;;;;5035370;28;20062;-90
2022/04/12 12:45:42;;;;;;;5.25;3.35;;;21.20;75.60;;;;;;5018036;28;20072;-90
2022/04/12 12:48:10;;;;;;;3.97;2.75;;;21.00;76.00;;;;;;5018558;28;20029;-91
2022/04/12 12:50:38;;;;;;;4.32;2.97;;;20.70;79.50;;;;;;5018265;28;20481;-91
2022/04/12 12:53:08;;;;;;;5.18;3.20;;;20.90;77.60;;;;;;5017932;28;20041;-90
2022/04/12 12:55:49;;;;;;;5.00;2.78;;;21.10;77.00;;;;;;5034370;28;20041;-90